Braine-l'Alleud, Belgium
Current Conditions -  °F | °C
As of 10:50 PM on Saturday 25 Oct 2014 (Local Time) from EBCI Reporting Station
Few Clouds Few Clouds  
Wind Chill: 52°   Ceiling: Unl
Heat Index: 52°   Visibility: 6mi
Dew Point: 50°   Wind: 8mph
Humidity: 94%   Direction: 210°SSW
Pressure: 30.21"   Gusts: NA
Location:  50.68°N, 4.37°E
Report Text: EBCI 252050Z 21007KT 9999 FEW020 11/10 Q1023 NOSIG
Loading
Personal Weather Stations






























Interactive Weather Map
Tropical Storm Tracking
New forecast layout! Learn more

10-Day Weather Forecast

Advertisements
Track Severe Weather on mobile